Data for 10/01/2014

Time Sea-Level Adjusted Pressure Absolute Pressure Temperature Relative Humidity Dew Point   
(mb) (inHg) (mb) (inHg) (C) (F) (%) (C) (F)
00:05 1016 30 845 24.95 5.7 42.3 63 -0.7 30.8
00:10 1016 30 845 24.95 5.8 42.5 64 -0.5 31.1
00:15 1016 30 845 24.95 5.8 42.5 64 -0.5 31.1
00:20 1016 30 845 24.95 5.7 42.3 67 -0 31.9
00:25 1016 30 845 24.95 5.5 41.9 67 -0.1 31.9
00:30 1016 30 845 24.95 5.5 41.8 67 -0.2 31.7
00:35 1016 30 845 24.95 5.6 42 65 -0.4 31.3
00:40 1016 30 845 24.95 5.7 42.2 66 -0.3 31.5
00:45 1016 30 845 24.95 5.6 42.1 66 -0.2 31.7
00:50 1016 30 845 24.95 5.5 41.9 66 -0.3 31.5
00:55 1016 30 845 24.95 5.3 41.6 68 -0.2 31.7
01:00 1016 30 845 24.95 5.2 41.3 69 -0.1 31.9
01:05 1016 30 845 24.95 5.1 41.2 70 0 32
01:10 1016 30 845 24.95 5 41 70 0.1 32.2
01:15 1016 30 845 24.95 5 41 70 0 32.1
01:20 1016 30 845 24.95 5 41 70 0 32.1
01:25 1016 30 845 24.95 5 41 71 0.1 32.2
01:30 1016 30 845 24.95 5 41.1 70 0.1 32.2
01:35 1016 30 846 24.98 5.1 41.2 72 0.4 32.7
01:40 1016 30 846 24.98 5 41 71 0.2 32.4
01:45 1016 30 846 24.98 5 41 71 0.3 32.5
01:50 1016 30 845 24.95 5 41 70 0 32.1
01:55 1016 30 845 24.95 5.1 41.2 71 0.4 32.6
02:00 1016 30 845 24.95 5.1 41.2 71 0.2 32.4
02:05 1016 30 845 24.95 5.1 41.2 70 0.1 32.3
02:10 1016 30 845 24.95 5.1 41.2 70 0.2 32.4
02:15 1016 30 845 24.95 5.1 41.2 71 0.3 32.6
02:20 1016 30 845 24.95 5.1 41.2 71 0.3 32.5
02:25 1016 30 845 24.95 5.1 41.3 71 0.4 32.7
02:30 1016 30 845 24.95 5.2 41.4 72 0.5 33
02:35 1016 30 845 24.95 5.3 41.5 71 0.5 32.8
02:40 1016 30 845 24.95 5.3 41.5 72 0.7 33.2
02:45 1016 30 845 24.95 5.2 41.4 72 0.5 32.9
02:50 1016 30 845 24.95 5.2 41.3 73 0.8 33.4
02:55 1016 30 845 24.95 5.1 41.1 72 0.5 32.9
03:00 1016 30 845 24.95 5.1 41.1 71 0.2 32.3
03:05 1016 30 845 24.95 5.1 41.1 71 0.2 32.3
03:10 1016 30 845 24.95 5 41.1 72 0.4 32.8
03:15 1016 30 845 24.95 4.9 40.9 73 0.5 32.9
03:20 1016 30 845 24.95 4.9 40.8 73 0.5 32.9
03:25 1016 30 845 24.95 4.9 40.9 75 0.9 33.6
03:30 1016 30 846 24.98 4.8 40.6 77 1.1 33.9
03:35 1016 30 846 24.98 4.6 40.2 78 1.1 34
03:40 1016 30 846 24.98 4.4 39.9 74 0.2 32.3
03:45 1017 30.03 846 24.98 4.6 40.3 71 -0.1 31.8
03:50 1017 30.03 846 24.98 4.8 40.7 70 -0.1 31.8
03:55 1017 30.03 846 24.98 4.8 40.7 70 -0.3 31.5
04:00 1017 30.03 846 24.98 4.8 40.7 71 0.1 32.2
04:05 1017 30.03 846 24.98 4.8 40.6 73 0.3 32.5
04:10 1017 30.03 846 24.98 4.7 40.5 71 -0.1 31.8
04:15 1017 30.03 846 24.98 4.9 40.8 69 -0.3 31.5
04:20 1017 30.03 846 24.98 5 41 68 -0.3 31.4
04:25 1017 30.03 846 24.98 5 41 71 0.2 32.4
04:30 1017 30.03 846 24.98 4.9 40.8 71 0.1 32.2
04:35 1017 30.03 846 24.98 4.9 40.7 70 -0.1 31.8
04:40 1017 30.03 846 24.98 4.9 40.7 72 0.1 32.3
04:45 1017 30.03 846 24.98 4.8 40.7 73 0.3 32.6
04:50 1017 30.03 846 24.98 4.8 40.7 70 -0.3 31.5
04:55 1017 30.03 846 24.98 4.9 40.7 70 -0.2 31.7
05:00 1017 30.03 846 24.98 4.9 40.9 69 -0.3 31.4
05:05 1017 30.03 846 24.98 5 40.9 70 -0 32
05:10 1017 30.03 846 24.98 5 41 69 -0.2 31.7
05:15 1017 30.03 846 24.98 5 41 69 -0.3 31.5
05:20 1017 30.03 846 24.98 5 41 70 -0 32
05:25 1017 30.03 846 24.98 5 41 69 -0.2 31.7
05:30 1017 30.03 846 24.98 5 41 69 -0.2 31.7
05:35 1017 30.03 846 24.98 5 41 69 -0.3 31.5
05:40 1017 30.03 846 24.98 5 40.9 70 -0.1 31.8
05:45 1017 30.03 846 24.98 5 41 70 -0.1 31.8
05:50 1017 30.03 847 25.01 5.1 41.1 70 0.1 32.1
05:55 1017 30.03 847 25.01 5.1 41.2 70 0.1 32.3
06:00 1017 30.03 847 25.01 5.1 41.2 71 0.2 32.4
06:05 1017 30.03 847 25.01 5 41 71 0.3 32.5
06:10 1018 30.06 847 25.01 4.9 40.9 72 0.3 32.6
06:15 1018 30.06 847 25.01 5 40.9 73 0.5 32.9
06:20 1018 30.06 847 25.01 5 40.9 73 0.6 33.1
06:25 1018 30.06 847 25.01 4.8 40.7 75 0.9 33.6
06:30 1018 30.06 847 25.01 4.6 40.4 76 0.9 33.5
06:35 1018 30.06 847 25.01 4.5 40.1 75 0.4 32.7
06:40 1018 30.06 847 25.01 4.5 40.2 75 0.5 32.9
06:45 1018 30.06 847 25.01 4.6 40.3 73 0.3 32.5
06:50 1018 30.06 847 25.01 4.6 40.4 74 0.4 32.8
06:55 1018 30.06 847 25.01 4.7 40.4 72 0.1 32.2
07:00 1018 30.06 847 25.01 4.8 40.6 71 0 32.1
07:05 1018 30.06 847 25.01 4.9 40.8 74 0.7 33.2
07:10 1018 30.06 847 25.01 4.9 40.9 72 0.4 32.7
07:15 1018 30.06 847 25.01 5 41 71 0.1 32.2
07:20 1018 30.06 847 25.01 5 41 71 0.3 32.5
07:25 1018 30.06 847 25.01 5 41 73 0.5 33
07:30 1018 30.06 847 25.01 5.1 41.1 73 0.6 33.1
07:35 1018 30.06 847 25.01 5.2 41.3 70 0.2 32.3
07:40 1018 30.06 847 25.01 5.5 41.8 68 0.1 32.1
07:45 1018 30.06 848 25.04 5.6 42.1 68 0.1 32.2
07:50 1018 30.06 848 25.04 5.8 42.4 67 0.1 32.1
07:55 1018 30.06 848 25.04 5.7 42.3 68 0.2 32.4
08:00 1018 30.06 848 25.04 5.8 42.4 67 0.2 32.3
08:05 1018 30.06 848 25.04 5.8 42.4 67 0.1 32.2
08:10 1018 30.06 848 25.04 5.9 42.6 67 0.2 32.4
08:15 1018 30.06 848 25.04 6 42.9 66 0.2 32.4
08:20 1019 30.09 848 25.04 6.3 43.3 64 0.1 32.1
08:25 1019 30.09 848 25.04 6.4 43.6 64 0.1 32.2
08:30 1019 30.09 848 25.04 6.4 43.6 63 0 32
08:35 1019 30.09 848 25.04 6.5 43.6 63 -0.1 31.9
08:40 1019 30.09 848 25.04 6.6 43.9 61 -0.3 31.4
08:45 1019 30.09 848 25.04 6.7 44.1 63 0.1 32.1
08:50 1019 30.09 848 25.04 6.6 44 64 0.4 32.7
08:55 1019 30.09 848 25.04 6.5 43.6 68 0.9 33.7
09:00 1019 30.09 848 25.04 6.2 43.1 70 1.2 34.2
09:05 1019 30.09 848 25.04 5.9 42.6 71 1.1 34
09:10 1019 30.09 848 25.04 5.7 42.2 72 1.1 33.9
09:15 1019 30.09 848 25.04 4.9 40.8 77 1.1 34.1
09:20 1019 30.09 848 25.04 4.6 40.4 79 1.3 34.3
09:25 1019 30.09 848 25.04 4.9 40.8 80 1.7 35
09:30 1019 30.09 848 25.04 5.1 41.1 76 1.1 34
09:35 1019 30.09 849 25.07 5.1 41.1 76 1.2 34.1
09:40 1019 30.09 849 25.07 5.1 41.1 76 1.2 34.2
09:45 1019 30.09 849 25.07 5.1 41.3 76 1.2 34.2
09:50 1019 30.09 849 25.07 5.1 41.3 76 1.3 34.3
09:55 1019 30.09 849 25.07 5.2 41.4 76 1.4 34.5
10:00 1019 30.09 849 25.07 5.5 41.8 77 1.8 35.3
10:05 1019 30.09 849 25.07 5.7 42.3 72 1.1 34
10:10 1020 30.12 849 25.07 5.7 42.3 75 1.7 35.1
10:15 1020 30.12 849 25.07 5.5 41.9 76 1.6 34.9
10:20 1019 30.09 849 25.07 5.4 41.7 80 2.2 36
10:25 1019 30.09 849 25.07 5.5 41.8 79 2.1 35.7
10:30 1020 30.12 849 25.07 5.5 42 80 2.3 36.2
10:35 1020 30.12 849 25.07 5.6 42.1 79 2.3 36.1
10:40 1020 30.12 849 25.07 5.7 42.2 81 2.7 36.8
10:45 1019 30.09 849 25.07 5.9 42.7 75 1.8 35.3
10:50 1019 30.09 849 25.07 6.1 42.9 73 1.6 34.9
10:55 1019 30.09 849 25.07 6.4 43.5 67 0.8 33.4
11:00 1019 30.09 849 25.07 6.5 43.7 70 1.4 34.5
11:05 1019 30.09 849 25.07 6.7 44 68 1.2 34.1
11:10 1019 30.09 849 25.07 7.1 44.8 68 1.6 34.8
11:15 1019 30.09 849 25.07 7.3 45.1 66 1.3 34.4
11:20 1019 30.09 849 25.07 7.4 45.2 65 1.3 34.3
11:25 1019 30.09 849 25.07 7 44.6 70 1.8 35.3
11:30 1019 30.09 849 25.07 6.8 44.2 69 1.6 34.8
11:35 1019 30.09 848 25.04 6.9 44.4 71 2 35.5
11:40 1019 30.09 848 25.04 7.1 44.7 68 1.5 34.7
11:45 1019 30.09 848 25.04 7.2 44.9 72 2.4 36.4
11:50 1019 30.09 848 25.04 7.5 45.5 65 1.5 34.6
11:55 1019 30.09 848 25.04 8.2 46.7 61 1.1 34
12:00 1019 30.09 848 25.04 8.2 46.7 65 1.9 35.4
12:05 1019 30.09 848 25.04 8.2 46.7 62 1.3 34.3
12:10 1019 30.09 848 25.04 8.2 46.7 60 1 33.7
12:15 1019 30.09 848 25.04 8.8 47.9 56 0.6 33.1
12:20 1019 30.09 848 25.04 9.2 48.5 57 1.1 34
12:25 1019 30.09 848 25.04 8.7 47.7 64 2.4 36.3
12:30 1019 30.09 848 25.04 8.6 47.4 65 2.4 36.4
12:35 1019 30.09 848 25.04 8.1 46.5 67 2.3 36.1
12:40 1019 30.09 848 25.04 7.5 45.5 65 1.4 34.5
12:45 1019 30.09 848 25.04 7 44.5 71 2.1 35.8
12:50 1019 30.09 848 25.04 6.9 44.4 68 1.4 34.6
12:55 1019 30.09 848 25.04 7.5 45.5 66 1.6 34.9
13:00 1019 30.09 848 25.04 8.3 47 66 2.4 36.3
13:05 1019 30.09 848 25.04 9.3 48.7 62 2.3 36.2
13:10 1018 30.06 848 25.04 9.5 49.2 62 2.7 36.8
13:15 1018 30.06 848 25.04 10.9 51.7 50 1 33.8
13:20 1018 30.06 848 25.04 11.1 51.9 49 0.9 33.6
13:25 1018 30.06 848 25.04 10.6 51.1 55 1.9 35.5
13:30 1018 30.06 847 25.01 9.9 49.7 53 0.8 33.4
13:35 1018 30.06 847 25.01 10.2 50.3 49 0 32.1
13:40 1018 30.06 847 25.01 10.3 50.6 50 0.3 32.6
13:45 1018 30.06 847 25.01 10.9 51.6 45 -0.5 31
13:50 1018 30.06 847 25.01 11.4 52.4 44 -0.5 31
13:55 1018 30.06 847 25.01 11.6 53 41 -1.2 29.9
14:00 1018 30.06 847 25.01 11.9 53.5 41 -0.9 30.3
14:05 1018 30.06 847 25.01 11.9 53.5 43 -0.2 31.6
14:10 1018 30.06 847 25.01 11.3 52.3 43 -0.7 30.7
14:15 1018 30.06 847 25.01 10.9 51.6 45 -0.4 31.3
14:20 1018 30.06 847 25.01 10.7 51.3 44 -1 30.2
14:25 1018 30.06 847 25.01 11.1 52 43 -0.9 30.3
14:30 1018 30.06 847 25.01 11.1 51.9 44 -0.8 30.6
14:35 1018 30.06 847 25.01 11.4 52.4 42 -1 30.2
14:40 1018 30.06 847 25.01 11.5 52.6 44 -0.3 31.4
14:45 1018 30.06 847 25.01 11.4 52.5 42 -0.9 30.4
14:50 1018 30.06 847 25.01 11.7 53.1 41 -1 30.1
14:55 1018 30.06 847 25.01 12.1 53.7 39 -1.3 29.6
15:00 1018 30.06 847 25.01 12 53.6 37 -2.2 28
15:05 1018 30.06 847 25.01 12.1 53.7 37 -2.3 27.8
15:10 1018 30.06 847 25.01 12.1 53.9 37 -2.2 28.1
15:15 1018 30.06 847 25.01 11.4 52.5 40 -1.7 29
15:20 1018 30.06 847 25.01 11.1 52 39 -2.3 27.9
15:25 1018 30.06 847 25.01 12 53.6 37 -2.1 28.3
15:30 1018 30.06 847 25.01 12.4 54.3 34 -3.2 26.3
15:35 1018 30.06 847 25.01 12.8 55 34 -2.5 27.5
15:40 1018 30.06 847 25.01 12.5 54.4 32 -3.7 25.4
15:45 1018 30.06 847 25.01 12.2 54 32 -4.1 24.6
15:50 1018 30.06 847 25.01 12.6 54.7 32 -3.5 25.7
15:55 1018 30.06 847 25.01 12.9 55.3 32 -3.2 26.2
16:00 1018 30.06 847 25.01 12.9 55.3 33 -2.8 27
16:05 1018 30.06 847 25.01 12.5 54.5 33 -3.2 26.2
16:10 1018 30.06 847 25.01 12.4 54.3 32 -3.7 25.3
16:15 1018 30.06 847 25.01 12.7 54.8 33 -2.9 26.7
16:20 1018 30.06 847 25.01 12.6 54.7 37 -1.6 29.2
16:25 1018 30.06 847 25.01 12 53.7 36 -2.4 27.6
16:30 1018 30.06 847 25.01 11.6 53 37 -2.5 27.4
16:35 1018 30.06 847 25.01 11.2 52.2 39 -2.3 27.8
16:40 1018 30.06 847 25.01 10.8 51.5 39 -2.7 27.2
16:45 1018 30.06 847 25.01 10.7 51.3 39 -2.8 27
16:50 1018 30.06 847 25.01 10.7 51.2 39 -2.7 27.1
16:55 1018 30.06 847 25.01 10.7 51.2 40 -2.4 27.7
17:00 1018 30.06 847 25.01 10.8 51.4 38 -2.8 27
17:05 1018 30.06 847 25.01 11 51.7 40 -2.1 28.2
17:10 1018 30.06 847 25.01 11 51.7 38 -2.6 27.2
17:15 1018 30.06 847 25.01 11.1 51.9 38 -2.8 27
17:20 1018 30.06 847 25.01 11 51.8 39 -2.5 27.4
17:25 1018 30.06 847 25.01 10.8 51.4 40 -2.3 27.9
17:30 1018 30.06 847 25.01 10.6 51.1 42 -1.8 28.7
17:35 1018 30.06 847 25.01 10.5 50.8 42 -1.9 28.6
17:40 1018 30.06 847 25.01 10.4 50.7 43 -1.6 29.2
17:45 1018 30.06 847 25.01 10.3 50.5 44 -1.5 29.3
17:50 1018 30.06 847 25.01 10.2 50.3 42 -2 28.4
17:55 1018 30.06 847 25.01 10 50 47 -0.7 30.7
18:00 1018 30.06 847 25.01 9.5 49.1 47 -1.2 29.9
18:05 1018 30.06 847 25.01 9.4 49 47 -1.4 29.5
18:10 1018 30.06 847 25.01 9.4 49 46 -1.5 29.3
18:15 1018 30.06 847 25.01 9.4 49 45 -1.8 28.8
18:20 1018 30.06 847 25.01 9.4 48.9 46 -1.7 28.9
18:25 1018 30.06 847 25.01 9.3 48.7 46 -1.7 28.9
18:30 1018 30.06 847 25.01 9.2 48.5 46 -1.7 28.9
18:35 1018 30.06 847 25.01 9 48.2 47 -1.7 29
18:40 1018 30.06 848 25.04 8.8 47.8 48 -1.7 29
18:45 1018 30.06 848 25.04 8.7 47.6 48 -1.6 29
18:50 1019 30.09 848 25.04 8.4 47.1 50 -1.3 29.6
18:55 1019 30.09 848 25.04 7.9 46.1 53 -1.1 30.1
19:00 1019 30.09 848 25.04 7.6 45.7 52 -1.7 29
19:05 1019 30.09 848 25.04 7.7 45.9 50 -2 28.4
19:10 1019 30.09 848 25.04 8 46.4 50 -1.7 29
19:15 1019 30.09 848 25.04 7.8 46 54 -1 30.3
19:20 1019 30.09 848 25.04 7.2 45 54 -1.3 29.6
19:25 1019 30.09 848 25.04 7.2 44.9 53 -1.8 28.8
19:30 1019 30.09 848 25.04 7.2 44.9 53 -1.8 28.7
19:35 1019 30.09 848 25.04 7 44.7 53 -1.8 28.8
19:40 1019 30.09 848 25.04 6.9 44.4 52 -2.2 28.1
19:45 1019 30.09 848 25.04 6.9 44.3 51 -2.4 27.6
19:50 1019 30.09 848 25.04 6.8 44.3 51 -2.6 27.4
19:55 1019 30.09 848 25.04 6.7 44 52 -2.5 27.5
20:00 1019 30.09 848 25.04 6.5 43.7 52 -2.6 27.3
20:05 1019 30.09 848 25.04 6.5 43.7 50 -3 26.6
20:10 1019 30.09 848 25.04 6.6 43.9 52 -2.6 27.3
20:15 1019 30.09 848 25.04 6.5 43.6 52 -2.5 27.4
20:20 1019 30.09 848 25.04 6.3 43.3 53 -2.7 27.2
20:25 1019 30.09 848 25.04 6.3 43.3 51 -3.3 26.1
20:30 1019 30.09 848 25.04 6.4 43.5 50 -3.2 26.2
20:35 1019 30.09 848 25.04 6.4 43.6 48 -3.8 25.2
20:40 1019 30.09 848 25.04 6.7 44.1 46 -4 24.8
20:45 1019 30.09 848 25.04 6.9 44.4 46 -4 24.8
20:50 1019 30.09 848 25.04 7 44.5 45 -4.2 24.4
20:55 1019 30.09 848 25.04 7 44.7 44 -4.3 24.3
21:00 1019 30.09 848 25.04 7 44.6 44 -4.5 23.9
21:05 1019 30.09 848 25.04 7 44.5 45 -4.2 24.4
21:10 1019 30.09 848 25.04 6.9 44.4 45 -4.2 24.5
21:15 1019 30.09 849 25.07 6.9 44.3 45 -4.3 24.2
21:20 1019 30.09 849 25.07 6.8 44.2 47 -3.7 25.4
21:25 1019 30.09 849 25.07 6.6 43.9 48 -3.5 25.7
21:30 1019 30.09 849 25.07 6.3 43.3 50 -3.5 25.7
21:35 1019 30.09 849 25.07 5.9 42.6 55 -2.4 27.6
21:40 1019 30.09 849 25.07 5.4 41.7 57 -2.5 27.5
21:45 1019 30.09 849 25.07 4.9 40.8 61 -2 28.4
21:50 1019 30.09 849 25.07 4.4 39.9 64 -1.8 28.7
21:55 1020 30.12 849 25.07 4 39.3 66 -1.8 28.8
22:00 1020 30.12 849 25.07 3.7 38.7 69 -1.4 29.5
22:05 1020 30.12 849 25.07 3.2 37.8 71 -1.6 29.2
22:10 1020 30.12 849 25.07 3.1 37.6 71 -1.6 29
22:15 1020 30.12 849 25.07 3.1 37.6 71 -1.7 29
22:20 1020 30.12 849 25.07 2.9 37.3 72 -1.7 28.9
22:25 1020 30.12 849 25.07 2.8 37.1 72 -1.7 28.9
22:30 1020 30.12 849 25.07 2.8 37.1 72 -1.7 28.9
22:35 1019 30.09 849 25.07 2.7 36.8 73 -1.6 29.1
22:40 1019 30.09 849 25.07 2.3 36.2 75 -1.7 29
22:45 1019 30.09 849 25.07 2.1 35.8 75 -1.8 28.8
22:50 1019 30.09 849 25.07 2.1 35.8 75 -1.9 28.6
22:55 1019 30.09 849 25.07 2 35.7 76 -1.7 28.9
23:00 1019 30.09 848 25.04 1.8 35.3 77 -1.8 28.8
23:05 1019 30.09 848 25.04 1.8 35.3 76 -2 28.3
23:10 1019 30.09 848 25.04 2.4 36.3 69 -2.8 27
23:15 1019 30.09 848 25.04 2.9 37.2 68 -2.5 27.5
23:20 1019 30.09 849 25.07 3 37.4 68 -2.4 27.7
23:25 1019 30.09 849 25.07 2.9 37.2 70 -2.1 28.1
23:30 1019 30.09 848 25.04 2.6 36.6 72 -2 28.4
23:35 1019 30.09 848 25.04 2.3 36.1 73 -2.1 28.2
23:40 1019 30.09 848 25.04 2.3 36.2 72 -2.2 28.1
23:45 1019 30.09 849 25.07 2.5 36.4 72 -2.1 28.3
23:50 1019 30.09 849 25.07 2.6 36.6 70 -2.3 27.8
23:55 1019 30.09 849 25.07 2.8 37 71 -1.9 28.6
24:00 1019 30.09 849 25.07 2.6 36.6 71 -2.1 28.2